Main page
METAR-TAF:

METAR-TAF

Airports :

Venice Marco Polo Airport

Venice, Italy

latitude: 45-30N, longitude: 012-20E, elevation: 2 m

Current weather observation

The report was made 27 minutes ago, at 16:20 UTC
Wind 4 kt from the South
Temperature 29°C
Humidity 43%
Pressure 1018 hPa
Visibility 10 km or more
no clouds below 1500 m and no cumulonimbus

METAR: LIPZ 201620Z 18004KT CAVOK 29/15 Q1018 NOSIG

Time: 18:47 (16:47 UTC)

Forecast

The report was made 5 hours and 47 minutes ago, at 11:00 UTC
Forecast valid from 20 at 12 UTC to 21 at 18 UTC
Wind 10 kt from the South/Southeast
Visibility 10 km or more
no clouds below 1500 m and no cumulonimbus
Becoming
from 20 at 18 UTC to 20 at 22 UTC
Wind 8 kt from the North/Northeast
Becoming
from 21 at 08 UTC to 21 at 12 UTC
Wind 10 kt from the South/Southeast

TAF: LIPZ 201100Z 2012/2118 15010KT CAVOK BECMG 2018/2022 02008KT BECMG 2108/2112 15010KT

Weather observations and forecasts of more than 4000 airports (METAR and TAF reports).

The available stations are represented by yellow and red dots on the map.

Hover mouse over dot to see the name of the station.

Then click to see weather observations and forecasts.

To change the map : click on the green buttons with a black cross to zoom in, on the green button with a dash to zoom out, or on the green arrows for adjacent maps.


METAR-TAF: